Time;durP1;ratioP1;P1;durP2;ratioP2;P2;SDS_P1;SDS_P2;PMS_P1;PMS_P2;Temp;Humidity;BMP_temperature;BMP_pressure;BME280_temperature;BME280_humidity;BME280_pressure;Samples;Min_cycle;Max_cycle;Signal;HPM_P1;HPM_P2
2023/05/02 00:01:44;;;;;;;3.40;3.10;;;13.90;99.90;;;;;;5088255;28;20166;-52
2023/05/02 00:04:10;;;;;;;3.33;2.97;;;13.90;99.90;;;;;;5088402;28;20103;-48
2023/05/02 00:06:35;;;;;;;3.28;2.97;;;13.80;99.90;;;;;;5089177;28;20179;-53
2023/05/02 00:09:01;;;;;;;3.65;3.03;;;13.70;99.90;;;;;;5093157;28;20039;-54
2023/05/02 00:11:26;;;;;;;3.30;3.00;;;13.70;99.90;;;;;;5092437;28;20032;-50
2023/05/02 00:13:52;;;;;;;3.95;2.97;;;13.60;99.90;;;;;;5092159;28;20562;-49
2023/05/02 00:16:17;;;;;;;4.47;2.95;;;13.50;99.90;;;;;;5092290;28;20500;-48
2023/05/02 00:18:43;;;;;;;2.90;2.67;;;13.40;99.90;;;;;;5093152;28;20039;-53
2023/05/02 00:21:08;;;;;;;3.35;3.15;;;13.30;99.90;;;;;;5092459;28;20310;-51
2023/05/02 00:23:34;;;;;;;5.03;4.15;;;13.30;99.90;;;;;;5092239;28;20024;-51
2023/05/02 00:25:59;;;;;;;3.83;3.50;;;13.20;99.90;;;;;;5092245;28;20028;-47
2023/05/02 00:28:25;;;;;;;4.07;3.72;;;13.20;99.90;;;;;;5093242;28;20039;-55
2023/05/02 00:30:52;;;;;;;3.97;3.63;;;13.10;99.90;;;;;;5092853;28;20028;-47
2023/05/02 00:33:18;;;;;;;5.25;4.03;;;13.00;99.90;;;;;;5091924;28;20059;-50
2023/05/02 00:35:43;;;;;;;4.30;3.90;;;13.00;99.90;;;;;;5091904;28;20047;-49
2023/05/02 00:38:09;;;;;;;4.00;3.67;;;12.90;99.90;;;;;;5092175;28;20107;-50
2023/05/02 00:40:50;;;;;;;3.88;3.63;;;12.90;99.90;;;;;;5091512;28;20442;-47
2023/05/02 00:43:16;;;;;;;3.80;3.47;;;12.80;99.90;;;;;;5091449;28;20020;-48
2023/05/02 00:45:42;;;;;;;6.82;3.78;;;12.80;99.90;;;;;;5091218;28;20112;-49
2023/05/02 00:48:09;;;;;;;4.43;4.00;;;12.70;99.90;;;;;;5091571;28;20024;-53
2023/05/02 00:50:40;;;;;;;4.45;4.05;;;12.70;99.90;;;;;;5091654;28;20027;-50
2023/05/02 00:53:06;;;;;;;9.00;4.03;;;12.60;99.90;;;;;;5092196;28;20106;-52
2023/05/02 00:55:33;;;;;;;7.38;4.10;;;12.60;99.90;;;;;;5091553;28;20386;-49
2023/05/02 00:58:03;;;;;;;5.03;4.47;;;12.60;99.90;;;;;;5091144;28;20387;-53
2023/05/02 01:01:03;;;;;;;5.60;4.30;;;12.50;99.90;;;;;;5090895;28;20036;-50
2023/05/02 01:03:38;;;;;;;5.47;5.05;;;12.50;99.90;;;;;;5091351;28;20419;-52
2023/05/02 01:06:03;;;;;;;7.10;5.38;;;12.40;99.90;;;;;;5099072;22;20044;-50
2023/05/02 01:08:51;;;;;;;5.68;5.18;;;12.40;99.90;;;;;;5055303;28;20020;-53
2023/05/02 01:11:34;;;;;;;5.20;4.80;;;12.40;99.90;;;;;;5073318;28;20028;-53
2023/05/02 01:14:03;;;;;;;7.47;5.30;;;12.50;99.90;;;;;;5073687;28;20027;-47
2023/05/02 01:16:31;;;;;;;5.97;5.40;;;12.40;99.90;;;;;;5073391;28;20036;-49
2023/05/02 01:19:00;;;;;;;6.20;5.60;;;12.40;99.90;;;;;;5054511;28;20021;-47
2023/05/02 01:21:27;;;;;;;7.50;6.13;;;12.40;99.90;;;;;;5073378;28;20029;-50
2023/05/02 01:24:09;;;;;;;7.85;6.15;;;12.40;99.90;;;;;;5073563;28;20021;-47
2023/05/02 01:27:01;;;;;;;7.50;5.88;;;12.40;99.90;;;;;;5073276;28;20032;-49
2023/05/02 01:29:28;;;;;;;6.85;5.38;;;12.40;99.90;;;;;;5073340;28;20480;-50
2023/05/02 01:31:55;;;;;;;5.90;5.30;;;12.40;99.90;;;;;;5073176;28;20024;-52
2023/05/02 01:34:22;;;;;;;16.88;6.30;;;12.40;99.90;;;;;;5073343;28;20467;-50
2023/05/02 01:36:49;;;;;;;8.23;7.13;;;12.40;99.90;;;;;;5055107;28;20044;-47
2023/05/02 01:39:19;;;;;;;7.07;6.45;;;12.30;99.90;;;;;;5073230;28;20024;-49
2023/05/02 01:41:50;;;;;;;7.13;6.43;;;12.30;99.90;;;;;;5072883;28;20039;-49
2023/05/02 01:44:17;;;;;;;8.57;6.63;;;12.30;99.90;;;;;;5073107;28;20079;-47
2023/05/02 01:46:43;;;;;;;7.53;6.63;;;12.30;99.90;;;;;;5072524;28;20072;-47
2023/05/02 01:49:09;;;;;;;8.05;6.88;;;12.30;99.90;;;;;;5072918;28;20028;-46
2023/05/02 01:51:40;;;;;;;10.23;6.78;;;12.20;99.90;;;;;;5054769;28;20032;-50
2023/05/02 01:54:07;;;;;;;8.07;7.32;;;12.20;99.90;;;;;;5072844;28;20067;-49
2023/05/02 01:56:36;;;;;;;11.60;9.02;;;12.10;99.90;;;;;;5072624;28;20094;-51
2023/05/02 01:59:06;;;;;;;11.75;9.38;;;12.10;99.90;;;;;;5072827;28;20029;-50
2023/05/02 02:01:35;;;;;;;12.35;9.95;;;12.10;99.90;;;;;;5072740;28;20020;-48
2023/05/02 02:04:03;;;;;;;9.52;8.63;;;12.00;99.90;;;;;;5054601;28;20108;-51
2023/05/02 02:06:30;;;;;;;10.02;8.52;;;12.00;99.90;;;;;;5072010;28;20028;-49
2023/05/02 02:08:55;;;;;;;10.20;9.10;;;12.10;99.90;;;;;;5072596;28;20024;-49
2023/05/02 02:11:37;;;;;;;10.98;9.70;;;12.00;99.90;;;;;;5072487;28;20029;-50
2023/05/02 02:14:11;;;;;;;11.18;9.23;;;12.10;99.90;;;;;;5072606;28;20055;-48
2023/05/02 02:16:38;;;;;;;10.82;9.73;;;12.10;99.90;;;;;;5072327;28;20125;-49
2023/05/02 02:19:07;;;;;;;14.38;11.15;;;12.00;99.90;;;;;;5072417;28;20434;-49
2023/05/02 02:21:35;;;;;;;11.57;10.38;;;12.00;99.90;;;;;;5071940;28;20028;-48
2023/05/02 02:24:02;;;;;;;13.75;10.73;;;12.00;99.90;;;;;;5071892;28;20017;-46
2023/05/02 02:26:27;;;;;;;12.20;9.90;;;11.90;99.90;;;;;;5071771;28;20061;-51
2023/05/02 02:28:54;;;;;;;12.98;10.35;;;11.90;99.90;;;;;;5072297;28;20119;-45
2023/05/02 02:31:20;;;;;;;14.45;11.10;;;11.90;99.90;;;;;;5071802;28;20492;-48
2023/05/02 02:33:45;;;;;;;11.85;10.07;;;11.90;99.90;;;;;;5072117;28;20057;-46
2023/05/02 02:36:20;;;;;;;13.15;9.75;;;11.90;99.90;;;;;;5071916;28;20052;-47
2023/05/02 02:38:59;;;;;;;11.90;10.70;;;11.80;99.90;;;;;;5072002;28;20515;-47
2023/05/02 02:41:35;;;;;;;11.88;10.68;;;11.80;99.90;;;;;;5072068;28;20029;-49
2023/05/02 02:44:28;;;;;;;12.55;11.25;;;11.80;99.90;;;;;;5071893;28;20013;-47
2023/05/02 02:47:09;;;;;;;11.70;10.45;;;11.80;99.90;;;;;;5071607;28;20059;-49
2023/05/02 02:49:42;;;;;;;13.05;10.43;;;11.80;99.90;;;;;;5072033;28;20492;-51
2023/05/02 02:52:13;;;;;;;12.63;10.77;;;11.80;99.90;;;;;;5071965;28;20423;-51
2023/05/02 02:54:48;;;;;;;15.32;11.65;;;11.80;99.90;;;;;;5071597;28;20021;-46
2023/05/02 02:57:21;;;;;;;15.63;12.27;;;11.80;99.90;;;;;;5053603;28;20048;-50
2023/05/02 02:59:56;;;;;;;14.32;12.85;;;11.70;99.90;;;;;;5071672;28;20025;-49
2023/05/02 03:02:26;;;;;;;13.77;12.23;;;11.60;99.90;;;;;;5071675;28;20016;-50
2023/05/02 03:04:53;;;;;;;18.45;13.32;;;11.40;99.90;;;;;;5071156;28;20031;-48
2023/05/02 03:07:19;;;;;;;15.50;12.98;;;11.30;99.90;;;;;;5071780;28;20051;-49
2023/05/02 03:09:46;;;;;;;15.57;12.50;;;11.20;99.90;;;;;;5071403;28;20508;-47
2023/05/02 03:12:13;;;;;;;14.48;11.70;;;11.20;99.90;;;;;;5072076;28;20025;-47
2023/05/02 03:14:39;;;;;;;18.00;13.55;;;11.00;99.90;;;;;;5071543;28;20031;-48
2023/05/02 03:17:07;;;;;;;16.75;12.98;;;11.00;99.90;;;;;;5071328;28;20020;-47
2023/05/02 03:19:32;;;;;;;16.38;13.75;;;11.00;99.90;;;;;;5071242;28;20017;-47
2023/05/02 03:21:58;;;;;;;18.80;14.48;;;10.90;99.90;;;;;;5071261;28;20017;-46
2023/05/02 03:24:26;;;;;;;21.15;16.85;;;10.90;99.90;;;;;;5053440;28;20476;-52
2023/05/02 03:26:57;;;;;;;17.65;15.25;;;10.90;99.90;;;;;;5071377;28;20017;-47
2023/05/02 03:29:24;;;;;;;18.13;16.23;;;10.90;99.90;;;;;;5071459;28;20101;-48
2023/05/02 03:31:50;;;;;;;19.90;17.13;;;11.00;99.90;;;;;;5071211;28;20032;-48
2023/05/02 03:34:15;;;;;;;20.77;16.38;;;11.00;99.90;;;;;;5053399;28;20032;-48
2023/05/02 03:36:41;;;;;;;22.55;18.88;;;11.00;99.90;;;;;;5071259;28;20442;-48
2023/05/02 03:39:07;;;;;;;22.13;18.50;;;11.10;99.90;;;;;;5071435;28;20020;-47
2023/05/02 03:41:32;;;;;;;23.48;19.83;;;11.10;99.90;;;;;;5070717;28;20028;-46
2023/05/02 03:43:57;;;;;;;24.17;19.08;;;11.20;99.90;;;;;;5071340;28;20440;-47
2023/05/02 03:46:23;;;;;;;29.65;22.42;;;11.20;99.90;;;;;;5071129;28;20108;-49
2023/05/02 03:48:49;;;;;;;17.23;15.43;;;11.20;99.90;;;;;;5071204;28;20052;-49
2023/05/02 03:51:15;;;;;;;22.50;18.48;;;11.20;99.90;;;;;;5071185;28;20060;-52
2023/05/02 03:53:40;;;;;;;22.00;18.60;;;11.20;99.90;;;;;;5071200;28;20515;-47
2023/05/02 03:56:07;;;;;;;30.35;25.80;;;11.20;99.90;;;;;;5071315;28;20094;-48
2023/05/02 03:58:35;;;;;;;33.15;26.88;;;11.10;99.90;;;;;;5071312;28;20554;-48
2023/05/02 04:01:00;;;;;;;34.97;28.10;;;11.20;99.90;;;;;;5071518;28;20024;-47
2023/05/02 04:03:27;;;;;;;38.53;28.48;;;11.20;99.90;;;;;;5053072;28;20097;-48
2023/05/02 04:05:52;;;;;;;37.47;29.63;;;11.20;99.90;;;;;;5070244;28;20452;-46
2023/05/02 04:08:18;;;;;;;38.47;30.70;;;11.20;99.90;;;;;;5071197;28;20056;-48
2023/05/02 04:10:44;;;;;;;38.33;31.60;;;11.20;99.90;;;;;;5071007;28;20400;-52
2023/05/02 04:13:09;;;;;;;42.03;31.77;;;11.30;99.90;;;;;;5071056;28;20032;-52
2023/05/02 04:15:35;;;;;;;40.40;31.85;;;11.30;99.90;;;;;;5071046;28;20083;-50
2023/05/02 04:18:00;;;;;;;44.15;32.95;;;11.30;99.90;;;;;;5071673;28;20484;-48
2023/05/02 04:20:26;;;;;;;42.55;33.70;;;11.30;99.90;;;;;;5070862;28;20158;-53
2023/05/02 04:22:51;;;;;;;48.42;34.47;;;11.30;99.90;;;;;;5071019;28;20028;-47
2023/05/02 04:25:17;;;;;;;44.22;33.15;;;11.40;99.90;;;;;;5070866;28;20020;-47
2023/05/02 04:27:43;;;;;;;42.35;31.98;;;11.40;99.90;;;;;;5070750;28;20025;-53
2023/05/02 04:30:09;;;;;;;43.33;34.08;;;11.50;99.90;;;;;;5070745;28;20105;-52
2023/05/02 04:32:35;;;;;;;42.88;34.72;;;11.60;99.90;;;;;;5070901;28;20028;-50
2023/05/02 04:35:01;;;;;;;43.00;33.53;;;11.70;99.90;;;;;;5070703;28;20020;-51
2023/05/02 04:37:26;;;;;;;45.55;32.92;;;11.70;99.90;;;;;;5070709;28;20024;-49
2023/05/02 04:39:52;;;;;;;40.97;32.90;;;11.80;99.90;;;;;;5052341;28;20302;-48
2023/05/02 04:42:17;;;;;;;43.72;32.33;;;11.90;99.90;;;;;;5070984;28;20031;-46
2023/05/02 04:44:43;;;;;;;43.22;34.70;;;11.90;99.90;;;;;;5070660;28;20021;-49
2023/05/02 04:47:08;;;;;;;46.83;34.72;;;12.00;99.90;;;;;;5070639;28;20025;-48
2023/05/02 04:49:34;;;;;;;44.20;33.35;;;12.00;99.90;;;;;;5071038;28;20090;-48
2023/05/02 04:51:59;;;;;;;43.67;32.85;;;12.10;99.90;;;;;;5070432;28;20070;-48
2023/05/02 04:54:25;;;;;;;40.10;32.38;;;12.20;99.90;;;;;;5073698;28;20024;-48
2023/05/02 04:56:51;;;;;;;41.08;32.45;;;12.30;99.90;;;;;;5074145;28;20103;-51
2023/05/02 04:59:16;;;;;;;38.13;32.03;;;12.60;99.90;;;;;;5056191;28;20115;-47
2023/05/02 05:01:42;;;;;;;40.97;31.98;;;12.90;99.90;;;;;;5073929;28;20450;-47
2023/05/02 05:04:08;;;;;;;38.67;31.65;;;13.10;99.90;;;;;;5073905;28;20012;-47
2023/05/02 05:06:33;;;;;;;36.78;28.10;;;13.20;99.90;;;;;;5073423;28;20033;-48
2023/05/02 05:08:59;;;;;;;36.90;29.77;;;13.20;99.90;;;;;;5074081;28;20424;-47
2023/05/02 05:11:25;;;;;;;40.78;32.13;;;13.10;99.90;;;;;;5073825;28;20498;-49
2023/05/02 05:13:50;;;;;;;37.53;30.40;;;13.10;99.90;;;;;;5073859;28;20516;-47
2023/05/02 05:16:16;;;;;;;39.17;30.33;;;13.10;99.90;;;;;;5073378;28;20038;-52
2023/05/02 05:18:41;;;;;;;39.72;32.15;;;13.10;99.90;;;;;;5073918;28;20021;-50
2023/05/02 05:21:07;;;;;;;39.40;31.02;;;13.10;99.90;;;;;;5073493;28;20039;-49
2023/05/02 05:23:33;;;;;;;36.13;30.70;;;13.10;99.90;;;;;;5073840;28;20476;-51
2023/05/02 05:26:09;;;;;;;34.40;28.00;;;13.20;99.90;;;;;;5073746;28;20021;-48
2023/05/02 05:28:35;;;;;;;37.58;29.05;;;13.10;99.90;;;;;;5073644;28;20075;-47
2023/05/02 05:31:12;;;;;;;37.72;29.98;;;13.10;99.90;;;;;;5073691;28;20496;-50
2023/05/02 05:33:38;;;;;;;40.42;31.15;;;13.10;99.90;;;;;;5073574;28;20399;-47
2023/05/02 05:36:09;;;;;;;39.33;32.25;;;13.20;99.90;;;;;;5073298;28;20020;-49
2023/05/02 05:38:35;;;;;;;38.92;31.88;;;13.20;99.90;;;;;;5073569;28;20051;-47
2023/05/02 05:41:01;;;;;;;36.30;29.08;;;13.20;99.90;;;;;;5073395;28;20024;-48
2023/05/02 05:43:27;;;;;;;36.30;29.63;;;13.20;99.90;;;;;;5055397;28;20725;-50
2023/05/02 05:45:54;;;;;;;37.35;29.90;;;13.20;99.90;;;;;;5073212;28;20403;-52
2023/05/02 05:48:20;;;;;;;38.00;31.63;;;13.20;99.90;;;;;;5072921;28;20473;-50
2023/05/02 05:50:45;;;;;;;41.92;30.98;;;13.20;99.90;;;;;;5072996;28;20135;-54
2023/05/02 05:53:11;;;;;;;35.33;31.13;;;13.20;99.90;;;;;;5073017;28;20024;-47
2023/05/02 05:55:37;;;;;;;41.35;31.15;;;13.20;99.90;;;;;;5072929;28;20024;-48
2023/05/02 05:58:03;;;;;;;40.60;30.75;;;13.20;99.90;;;;;;5073030;28;20059;-48
2023/05/02 06:00:29;;;;;;;42.95;30.98;;;13.20;99.90;;;;;;5072819;28;20032;-47
2023/05/02 06:02:54;;;;;;;36.88;29.10;;;13.20;99.90;;;;;;5072966;28;20511;-50
2023/05/02 06:05:20;;;;;;;36.17;29.98;;;13.20;99.90;;;;;;5071771;28;20067;-53
2023/05/02 06:07:46;;;;;;;40.95;30.58;;;13.10;99.90;;;;;;5072765;28;20066;-47
2023/05/02 06:10:11;;;;;;;44.00;30.50;;;13.20;99.90;;;;;;5072691;28;20040;-51
2023/05/02 06:12:37;;;;;;;36.67;29.45;;;13.30;99.90;;;;;;5072701;28;20103;-48
2023/05/02 06:15:02;;;;;;;36.70;30.23;;;13.30;99.90;;;;;;5072628;28;20031;-51
2023/05/02 06:17:28;;;;;;;37.20;29.50;;;13.40;99.90;;;;;;5072591;28;20032;-49
2023/05/02 06:19:53;;;;;;;36.42;29.23;;;13.50;99.90;;;;;;5072447;28;20021;-51
2023/05/02 06:22:19;;;;;;;35.60;27.63;;;13.60;99.90;;;;;;5072232;28;20052;-51
2023/05/02 06:24:44;;;;;;;36.92;28.65;;;13.60;99.90;;;;;;5072242;28;20024;-51
2023/05/02 06:27:10;;;;;;;37.63;30.60;;;13.70;99.90;;;;;;5072362;28;20025;-51
2023/05/02 06:29:35;;;;;;;41.22;31.63;;;13.80;99.90;;;;;;5072410;28;20395;-48
2023/05/02 06:32:01;;;;;;;39.03;30.30;;;13.80;99.90;;;;;;5054284;28;20526;-50
2023/05/02 06:34:26;;;;;;;37.38;29.42;;;14.00;99.90;;;;;;5072254;28;20028;-46
2023/05/02 06:36:55;;;;;;;36.88;29.60;;;14.10;99.90;;;;;;5072259;28;20096;-48
2023/05/02 06:39:21;;;;;;;45.95;32.92;;;14.40;99.90;;;;;;5072467;28;20036;-48
2023/05/02 06:41:47;;;;;;;43.92;33.92;;;14.80;99.90;;;;;;5072180;28;20488;-49
2023/05/02 06:44:13;;;;;;;45.28;33.65;;;15.00;99.90;;;;;;5072469;28;20483;-51
2023/05/02 06:46:38;;;;;;;38.92;31.48;;;14.90;99.90;;;;;;5054108;28;20069;-51
2023/05/02 06:49:04;;;;;;;43.75;31.85;;;14.90;99.90;;;;;;5072078;28;20039;-50
2023/05/02 06:51:30;;;;;;;45.22;33.42;;;14.80;99.90;;;;;;5072255;28;20036;-54
2023/05/02 06:53:56;;;;;;;42.08;30.65;;;14.80;99.90;;;;;;5071997;28;20032;-49
2023/05/02 06:56:24;;;;;;;46.35;31.98;;;14.80;99.90;;;;;;5071451;28;20020;-51
2023/05/02 06:58:50;;;;;;;40.33;30.27;;;15.00;99.90;;;;;;5071951;28;20023;-52
2023/05/02 07:01:15;;;;;;;47.50;32.72;;;15.40;99.90;;;;;;5071628;28;20392;-48
2023/05/02 07:03:41;;;;;;;44.88;31.27;;;15.90;99.90;;;;;;5071711;28;20032;-51
2023/05/02 07:06:06;;;;;;;44.17;30.58;;;16.30;99.90;;;;;;5084610;22;20140;-46
2023/05/02 07:08:32;;;;;;;46.42;33.55;;;16.60;99.90;;;;;;5052067;28;20480;-50
2023/05/02 07:10:57;;;;;;;41.67;31.20;;;16.80;99.90;;;;;;5051761;28;20044;-49
2023/05/02 07:13:23;;;;;;;42.05;29.35;;;17.10;99.90;;;;;;5052018;28;20067;-49
2023/05/02 07:15:48;;;;;;;43.83;30.00;;;17.30;99.90;;;;;;5033474;28;20028;-52
2023/05/02 07:18:14;;;;;;;38.78;29.33;;;17.60;99.90;;;;;;5051275;28;20036;-49
2023/05/02 07:20:41;;;;;;;41.30;29.35;;;17.80;99.90;;;;;;5051583;28;20052;-45
2023/05/02 07:23:07;;;;;;;37.05;28.60;;;17.80;99.90;;;;;;5051987;28;20436;-47
2023/05/02 07:25:33;;;;;;;45.05;30.45;;;17.70;99.90;;;;;;5052042;28;20074;-48
2023/05/02 07:27:59;;;;;;;38.85;28.90;;;17.40;99.90;;;;;;5051608;28;20020;-54
2023/05/02 07:30:24;;;;;;;40.78;27.00;;;17.30;99.90;;;;;;5050868;28;20025;-46
2023/05/02 07:32:50;;;;;;;36.85;25.88;;;17.40;99.90;;;;;;5051510;28;20028;-48
2023/05/02 07:35:15;;;;;;;35.10;26.08;;;17.00;99.90;;;;;;5051084;28;20508;-46
2023/05/02 07:37:41;;;;;;;36.33;24.20;;;16.70;99.90;;;;;;5051268;28;20401;-54
2023/05/02 07:40:08;;;;;;;36.78;25.52;;;16.70;99.90;;;;;;5051144;28;20048;-47
2023/05/02 07:42:34;;;;;;;31.63;24.48;;;16.60;99.90;;;;;;5051516;28;20062;-52
2023/05/02 07:44:59;;;;;;;37.00;25.52;;;16.60;99.90;;;;;;5033296;28;20021;-46
2023/05/02 07:47:28;;;;;;;32.03;24.73;;;16.70;99.90;;;;;;5051442;28;20501;-46
2023/05/02 07:49:54;;;;;;;31.42;23.38;;;17.00;99.90;;;;;;5051388;28;20043;-47
2023/05/02 07:52:20;;;;;;;28.02;19.10;;;17.10;99.90;;;;;;5051490;28;20452;-51
2023/05/02 07:54:50;;;;;;;20.85;15.73;;;17.00;99.90;;;;;;5051353;28;20049;-51
2023/05/02 07:57:15;;;;;;;21.40;16.13;;;17.10;99.90;;;;;;5050887;28;20031;-48
2023/05/02 07:59:41;;;;;;;17.98;14.65;;;16.20;99.90;;;;;;5051291;28;20100;-47
2023/05/02 08:02:06;;;;;;;17.27;13.07;;;16.10;99.90;;;;;;5050981;28;20026;-48
2023/05/02 08:04:32;;;;;;;21.05;14.32;;;15.50;99.90;;;;;;5050613;28;20659;-47
2023/05/02 08:06:58;;;;;;;19.17;13.75;;;15.30;99.90;;;;;;5051271;28;20039;-53
2023/05/02 08:09:23;;;;;;;20.05;13.05;;;15.30;99.90;;;;;;5051014;28;20115;-47
2023/05/02 08:11:49;;;;;;;20.45;14.55;;;15.30;99.90;;;;;;5051338;28;20090;-50
2023/05/02 08:14:15;;;;;;;22.45;13.20;;;15.30;99.90;;;;;;5050821;28;20480;-51
2023/05/02 08:16:41;;;;;;;19.88;14.70;;;15.10;99.90;;;;;;5051361;28;20025;-51
2023/05/02 08:19:06;;;;;;;20.45;14.68;;;15.10;99.90;;;;;;5051158;28;20017;-47
2023/05/02 08:21:32;;;;;;;21.92;14.95;;;14.70;99.90;;;;;;5033345;28;20033;-49
2023/05/02 08:23:58;;;;;;;20.80;15.07;;;14.50;99.90;;;;;;5051227;28;20022;-50
2023/05/02 08:26:23;;;;;;;21.98;15.45;;;14.70;99.90;;;;;;5051095;28;20021;-51
2023/05/02 08:28:52;;;;;;;23.77;16.60;;;14.70;99.90;;;;;;5053474;28;20028;-50
2023/05/02 08:31:18;;;;;;;26.45;18.45;;;14.40;99.90;;;;;;5054865;28;20025;-49
2023/05/02 08:33:44;;;;;;;23.00;17.05;;;14.40;99.90;;;;;;5054647;28;20434;-49
2023/05/02 08:36:11;;;;;;;23.92;16.85;;;14.20;99.90;;;;;;5054750;28;20032;-51
2023/05/02 08:38:36;;;;;;;26.15;16.80;;;14.20;99.90;;;;;;5054437;28;20048;-49
2023/05/02 08:41:02;;;;;;;27.05;18.27;;;14.20;99.90;;;;;;5054641;28;20028;-46
2023/05/02 08:43:30;;;;;;;27.52;18.70;;;14.30;99.90;;;;;;5054581;28;20017;-48
2023/05/02 08:46:00;;;;;;;32.38;18.38;;;14.40;99.90;;;;;;5054439;28;20100;-50
2023/05/02 08:48:27;;;;;;;23.95;16.10;;;14.30;99.90;;;;;;5053170;28;20021;-53
2023/05/02 08:50:53;;;;;;;23.00;15.02;;;14.40;99.90;;;;;;5053182;28;20021;-53
2023/05/02 08:53:20;;;;;;;24.95;16.65;;;14.40;99.90;;;;;;5035860;28;20029;-48
2023/05/02 08:55:47;;;;;;;20.83;14.10;;;14.50;99.90;;;;;;5053892;28;20033;-49
2023/05/02 08:58:12;;;;;;;21.45;14.15;;;14.60;99.90;;;;;;5036561;28;20531;-48
2023/05/02 09:00:40;;;;;;;24.75;15.13;;;14.50;99.90;;;;;;5055009;28;20052;-50
2023/05/02 09:03:32;;;;;;;22.65;14.60;;;14.70;99.90;;;;;;5053295;28;20440;-47
2023/05/02 09:06:04;;;;;;;23.90;15.27;;;14.80;99.90;;;;;;5053146;28;20033;-54
2023/05/02 09:08:29;;;;;;;23.65;14.10;;;14.80;99.90;;;;;;5061256;28;20102;-48
2023/05/02 09:10:55;;;;;;;22.25;14.68;;;15.00;99.90;;;;;;5036105;28;20103;-48
2023/05/02 09:13:30;;;;;;;24.55;14.60;;;15.20;99.90;;;;;;5053871;28;20098;-49
2023/05/02 09:16:01;;;;;;;21.33;12.25;;;15.30;99.90;;;;;;5052964;28;20029;-49
2023/05/02 09:18:32;;;;;;;18.85;12.68;;;15.00;99.90;;;;;;5054096;28;20025;-47
2023/05/02 09:20:59;;;;;;;18.17;11.20;;;15.10;99.90;;;;;;5053541;28;20029;-52
2023/05/02 09:23:35;;;;;;;15.07;10.13;;;15.10;99.90;;;;;;5053908;28;20103;-49
2023/05/02 09:26:01;;;;;;;16.08;10.05;;;15.30;99.90;;;;;;5053705;28;20104;-49
2023/05/02 09:28:50;;;;;;;13.77;9.15;;;15.50;99.90;;;;;;5054129;28;20155;-49
2023/05/02 09:31:18;;;;;;;15.63;9.30;;;15.60;99.90;;;;;;5053792;28;20029;-52
2023/05/02 09:33:44;;;;;;;16.90;10.15;;;15.40;99.90;;;;;;5052524;28;20026;-52
2023/05/02 09:36:13;;;;;;;14.50;9.60;;;15.70;99.90;;;;;;5052698;28;20029;-52
2023/05/02 09:38:40;;;;;;;15.60;8.82;;;15.80;99.90;;;;;;5053797;28;20036;-48
2023/05/02 09:41:05;;;;;;;12.13;8.63;;;16.00;99.90;;;;;;5032315;28;20021;-48
2023/05/02 09:43:32;;;;;;;14.80;9.15;;;16.00;99.90;;;;;;5033213;28;20026;-52
2023/05/02 09:45:57;;;;;;;16.05;9.65;;;16.40;99.90;;;;;;5033228;28;20021;-52
2023/05/02 09:48:23;;;;;;;15.52;9.25;;;16.70;99.90;;;;;;5033890;28;20477;-47
2023/05/02 09:50:49;;;;;;;15.13;9.60;;;16.90;99.90;;;;;;5041390;28;20029;-52
2023/05/02 09:53:15;;;;;;;16.10;10.05;;;17.20;99.90;;;;;;5052826;28;20051;-48
2023/05/02 09:55:40;;;;;;;14.02;9.40;;;17.10;99.90;;;;;;5052824;28;20032;-54
2023/05/02 09:58:06;;;;;;;12.93;9.20;;;17.40;99.90;;;;;;5052890;28;20496;-55
2023/05/02 10:00:39;;;;;;;13.82;9.43;;;17.20;99.90;;;;;;5052734;28;20154;-49
2023/05/02 10:03:08;;;;;;;14.82;10.10;;;16.80;99.90;;;;;;5052135;28;20052;-50
2023/05/02 10:05:38;;;;;;;15.00;10.15;;;17.00;99.90;;;;;;5052713;28;20115;-49
2023/05/02 10:08:05;;;;;;;13.82;9.05;;;17.20;99.90;;;;;;5052359;28;20029;-50
2023/05/02 10:10:33;;;;;;;14.35;9.45;;;17.60;99.90;;;;;;5051929;28;20036;-54
2023/05/02 10:13:00;;;;;;;50.25;30.55;;;17.70;99.90;;;;;;5035009;28;20024;-53
2023/05/02 10:15:28;;;;;;;17.75;11.82;;;17.70;99.90;;;;;;5052763;28;20021;-50
2023/05/02 10:17:59;;;;;;;10.48;8.25;;;17.80;99.90;;;;;;5053560;28;20025;-50
2023/05/02 10:20:31;;;;;;;14.63;8.85;;;17.40;99.90;;;;;;5052572;28;20503;-48
2023/05/02 10:23:02;;;;;;;13.25;8.13;;;16.80;99.90;;;;;;5052614;28;20028;-50
2023/05/02 10:25:28;;;;;;;10.07;7.35;;;16.90;99.90;;;;;;5052484;28;20050;-54
2023/05/02 10:27:58;;;;;;;8.90;6.40;;;16.80;99.90;;;;;;5051916;28;20031;-54
2023/05/02 10:30:25;;;;;;;8.75;6.72;;;16.80;99.90;;;;;;5051841;28;20033;-51
2023/05/02 10:32:54;;;;;;;8.55;6.65;;;17.00;99.90;;;;;;5052521;28;20032;-46
2023/05/02 10:35:21;;;;;;;8.85;6.10;;;16.90;99.90;;;;;;5050872;28;20663;-51
2023/05/02 10:37:48;;;;;;;12.23;7.85;;;17.20;99.90;;;;;;5048419;28;20104;-48
2023/05/02 10:40:14;;;;;;;8.65;6.82;;;17.00;99.90;;;;;;5052217;28;20511;-47
2023/05/02 10:42:45;;;;;;;10.38;5.60;;;17.10;99.90;;;;;;5051959;28;20031;-48
2023/05/02 10:45:35;;;;;;;10.50;6.40;;;17.30;99.90;;;;;;5039067;28;20071;-48
2023/05/02 10:48:21;;;;;;;8.90;6.63;;;17.30;99.90;;;;;;5046033;28;20342;-51
2023/05/02 10:51:00;;;;;;;9.65;6.95;;;17.60;99.90;;;;;;5039030;28;20028;-54
2023/05/02 10:53:30;;;;;;;7.50;6.20;;;17.50;99.80;;;;;;5051487;28;20021;-49
2023/05/02 10:56:20;;;;;;;7.65;4.70;;;17.40;99.90;;;;;;5046869;28;20392;-48
2023/05/02 10:58:50;;;;;;;9.52;5.15;;;17.60;99.70;;;;;;5039101;28;20037;-53
2023/05/02 11:01:28;;;;;;;6.22;4.18;;;17.60;99.80;;;;;;5051327;28;20044;-48
2023/05/02 11:04:01;;;;;;;5.28;4.40;;;17.80;99.50;;;;;;5050492;28;20021;-55
2023/05/02 11:06:28;;;;;;;5.20;4.05;;;18.00;99.20;;;;;;5049645;28;20029;-52
2023/05/02 11:09:15;;;;;;;4.72;3.78;;;18.10;99.20;;;;;;5051379;28;20427;-51
2023/05/02 11:11:41;;;;;;;23.95;15.52;;;18.10;99.00;;;;;;5050637;28;20063;-50
2023/05/02 11:14:08;;;;;;;15.75;10.65;;;18.00;98.70;;;;;;5051442;28;20071;-54
2023/05/02 11:17:05;;;;;;;4.93;3.90;;;18.00;98.30;;;;;;5050458;28;20021;-48
2023/05/02 11:19:56;;;;;;;6.10;4.15;;;18.00;98.60;;;;;;5049928;28;20026;-47
2023/05/02 11:22:26;;;;;;;5.55;4.25;;;17.90;98.80;;;;;;5051261;28;20479;-46
2023/05/02 11:24:51;;;;;;;4.10;3.13;;;17.80;99.10;;;;;;5050917;28;20027;-56
2023/05/02 11:27:29;;;;;;;4.80;3.47;;;17.70;98.80;;;;;;5051222;28;20025;-56
2023/05/02 11:29:59;;;;;;;4.15;3.67;;;17.60;99.50;;;;;;5050278;28;20017;-52
2023/05/02 11:32:48;;;;;;;5.35;3.80;;;17.70;97.90;;;;;;5032846;28;20025;-56
2023/05/02 11:35:18;;;;;;;3.30;3.00;;;17.40;98.40;;;;;;5049840;28;20359;-47
2023/05/02 11:37:53;;;;;;;5.47;3.33;;;17.50;97.80;;;;;;5051139;28;20026;-48
2023/05/02 11:40:19;;;;;;;4.67;2.80;;;17.40;98.00;;;;;;5051451;28;20021;-52
2023/05/02 11:42:44;;;;;;;4.53;2.92;;;17.30;98.40;;;;;;5051272;28;20025;-55
2023/05/02 11:45:10;;;;;;;9.07;2.70;;;17.40;99.50;;;;;;5051502;28;20032;-49
2023/05/02 11:47:36;;;;;;;5.18;3.00;;;17.50;98.40;;;;;;5050632;28;20060;-50
2023/05/02 11:50:05;;;;;;;7.90;3.20;;;17.60;98.70;;;;;;5051370;28;20036;-51
2023/05/02 11:52:37;;;;;;;4.72;3.50;;;17.70;98.50;;;;;;5051288;28;20016;-51
2023/05/02 11:55:05;;;;;;;3.42;3.13;;;17.70;97.80;;;;;;5051177;28;20055;-48
2023/05/02 11:57:32;;;;;;;3.47;2.53;;;17.70;98.30;;;;;;5050947;28;20100;-52
2023/05/02 11:59:58;;;;;;;5.68;3.53;;;17.70;98.20;;;;;;5051371;28;20481;-45
2023/05/02 12:02:38;;;;;;;5.28;3.55;;;17.60;97.00;;;;;;5051341;28;20100;-48
2023/05/02 12:05:04;;;;;;;3.63;3.25;;;17.70;98.80;;;;;;5055520;28;20032;-50
2023/05/02 12:07:49;;;;;;;4.10;2.83;;;17.70;97.40;;;;;;5055691;28;20067;-52
2023/05/02 12:10:14;;;;;;;4.70;3.92;;;17.70;98.10;;;;;;5055379;28;20039;-51
2023/05/02 12:12:43;;;;;;;4.15;3.67;;;17.70;97.60;;;;;;5055306;28;20459;-47
2023/05/02 12:15:10;;;;;;;4.70;4.15;;;17.70;98.40;;;;;;5055204;28;20055;-50
2023/05/02 12:17:39;;;;;;;5.80;4.18;;;17.70;97.90;;;;;;5055237;28;20025;-48
2023/05/02 12:20:07;;;;;;;6.97;4.65;;;17.70;98.80;;;;;;5055121;28;20043;-48
2023/05/02 12:22:33;;;;;;;8.98;4.38;;;17.60;98.10;;;;;;5055170;28;20481;-50
2023/05/02 12:24:59;;;;;;;5.57;4.25;;;17.70;98.90;;;;;;5054897;28;20040;-52
2023/05/02 12:27:25;;;;;;;6.18;5.15;;;17.80;99.00;;;;;;5054761;28;20017;-51
2023/05/02 12:29:50;;;;;;;13.20;7.15;;;18.10;98.70;;;;;;5055019;28;20032;-49
2023/05/02 12:32:31;;;;;;;8.30;6.00;;;18.30;98.60;;;;;;5055724;28;20521;-49
2023/05/02 12:34:58;;;;;;;8.93;5.75;;;18.40;97.70;;;;;;5054957;28;20025;-51
2023/05/02 12:37:25;;;;;;;8.35;5.88;;;18.40;98.00;;;;;;5054506;28;20147;-46
2023/05/02 12:39:52;;;;;;;8.63;6.50;;;18.40;98.40;;;;;;5054228;28;20017;-50